Time;durP1;ratioP1;P1;durP2;ratioP2;P2;SDS_P1;SDS_P2;PMS_P1;PMS_P2;Temp;Humidity;BMP_temperature;BMP_pressure;BME280_temperature;BME280_humidity;BME280_pressure;Samples;Min_cycle;Max_cycle;Signal;HPM_P1;HPM_P2
2023/06/16 00:02:24;;;;;;;;;;;;;;;;;;5091445;28;20368;-69
2023/06/16 00:07:45;;;;;;;;;;;;;;;;;;5153076;27;19925;-69
2023/06/16 00:11:11;;;;;;;;;;;;;;;;;;5091230;27;20288;-70
2023/06/16 00:15:43;;;;;;;;;;;;;;;;;;5091531;28;20402;-69
2023/06/16 00:18:10;;;;;;;;;;;;;;;;;;5091146;28;20003;-69
2023/06/16 00:23:16;;;;;;;;;;;;;;;;;;5153094;27;19916;-69
2023/06/16 00:25:42;;;;;;;;;;;;;;;;;;5152445;27;20374;-69
2023/06/16 00:28:20;;;;;;;;;;;;;;;;;;5153152;27;20353;-69
2023/06/16 00:31:16;;;;;;;;;;;;;;;;;;5091061;27;19916;-69
2023/06/16 00:35:54;;;;;;;;;;;;;;;;;;5091475;27;19923;-69
2023/06/16 00:38:20;;;;;;;;;;;;;;;;;;5090963;28;20003;-68
2023/06/16 00:43:01;;;;;;;;;;;;;;;;;;5092136;27;20275;-69
2023/06/16 00:45:51;;;;;;;;;;;;;;;;;;5091396;28;20271;-69
2023/06/16 00:48:35;;;;;;;;;;;;;;;;;;5092408;28;19916;-70
2023/06/16 00:51:01;;;;;;;;;;;;;;;;;;5091435;28;20011;-70
2023/06/16 00:53:30;;;;;;;;;;;;;;;;;;5090959;28;19908;-69
2023/06/16 00:58:46;;;;;;;;;;;;;;;;;;5153189;27;20015;-69
2023/06/16 01:01:12;;;;;;;;;;;;;;;;;;5152810;27;20006;-68
2023/06/16 01:03:39;;;;;;;;;;;;;;;;;;5152894;27;19949;-69
2023/06/16 01:06:05;;;;;;;;;;;;;;;;;;5152381;27;19907;-69
2023/06/16 01:08:31;;;;;;;;;;;;;;;;;;5152747;27;19912;-69
2023/06/16 01:13:08;;;;;;;;;;;;;;;;;;5173786;27;19911;-69
2023/06/16 01:15:33;;;;;;;;;;;;;;;;;;5173810;27;19922;-69
2023/06/16 01:19:09;;;;;;;;;;;;;;;;;;5092071;27;19916;-69
2023/06/16 01:23:40;;;;;;;;;;;;;;;;;;5111911;27;20573;-68
2023/06/16 01:29:28;;;;;;;;;;;;;;;;;;5091630;27;19916;-69
2023/06/16 01:31:54;;;;;;;;;;;;;;;;;;5090062;28;20011;-69
2023/06/16 01:36:54;;;;;;;;;;;;;;;;;;5092175;27;20368;-69
2023/06/16 01:41:40;;;;;;;;;;;;;;;;;;5152665;27;19998;-69
2023/06/16 01:44:06;;;;;;;;;;;;;;;;;;5152920;27;19947;-69
2023/06/16 01:49:05;;;;;;;;;;;;;;;;;;5091222;27;20284;-69
2023/06/16 01:51:31;;;;;;;;;;;;;;;;;;5091866;28;19912;-69
2023/06/16 01:54:22;;;;;;;;;;;;;;;;;;5092180;27;19916;-69
2023/06/16 01:56:48;;;;;;;;;;;;;;;;;;5090933;28;19999;-69
2023/06/16 02:00:33;;;;;;;;;;;;;;;;;;5173972;27;19911;-69
2023/06/16 02:02:59;;;;;;;;;;;;;;;;;;5173343;27;19911;-69
2023/06/16 02:06:54;;;;;;;;;;;;;;;;;;5092210;28;19931;-69
2023/06/16 02:10:32;;;;;;;;;;;;;;;;;;5111629;27;19922;-69
2023/06/16 02:13:13;;;;;;;;;;;;;;;;;;5092066;27;19919;-69
2023/06/16 02:15:38;;;;;;;;;;;;;;;;;;5091571;28;20003;-69
2023/06/16 02:18:04;;;;;;;;;;;;;;;;;;5090784;28;19908;-69
2023/06/16 02:20:30;;;;;;;;;;;;;;;;;;5091355;28;19919;-69
2023/06/16 02:24:42;;;;;;;;;;;;;;;;;;5091251;27;19916;-69
2023/06/16 02:27:08;;;;;;;;;;;;;;;;;;5091380;28;20409;-69
2023/06/16 02:33:09;;;;;;;;;;;;;;;;;;5091506;28;19923;-69
2023/06/16 02:37:41;;;;;;;;;;;;;;;;;;5091592;27;19917;-71
2023/06/16 02:42:41;;;;;;;;;;;;;;;;;;5092223;28;20289;-69
2023/06/16 02:45:07;;;;;;;;;;;;;;;;;;5090922;28;19912;-69
2023/06/16 02:47:33;;;;;;;;;;;;;;;;;;5091232;28;19915;-70
2023/06/16 02:49:59;;;;;;;;;;;;;;;;;;5091186;28;20003;-70
2023/06/16 02:52:25;;;;;;;;;;;;;;;;;;5090771;28;19909;-69
2023/06/16 02:56:32;;;;;;;;;;;;;;;;;;5091641;28;19912;-69
2023/06/16 02:58:58;;;;;;;;;;;;;;;;;;5091197;28;20003;-68
2023/06/16 03:01:25;;;;;;;;;;;;;;;;;;5091453;28;19935;-69
2023/06/16 03:06:07;;;;;;;;;;;;;;;;;;5070872;28;19923;-69
2023/06/16 03:08:33;;;;;;;;;;;;;;;;;;5071136;28;19913;-69
2023/06/16 03:10:59;;;;;;;;;;;;;;;;;;5071082;28;20261;-68
2023/06/16 03:18:01;;;;;;;;;;;;;;;;;;5091686;27;19913;-69
2023/06/16 03:22:47;;;;;;;;;;;;;;;;;;5091813;27;19923;-69
2023/06/16 03:25:15;;;;;;;;;;;;;;;;;;5091644;28;19947;-69
2023/06/16 03:27:41;;;;;;;;;;;;;;;;;;5090900;28;19917;-69
2023/06/16 03:31:15;;;;;;;;;;;;;;;;;;5153269;27;20286;-69
2023/06/16 03:34:11;;;;;;;;;;;;;;;;;;5091543;27;19916;-69
2023/06/16 03:36:39;;;;;;;;;;;;;;;;;;5091099;28;20027;-69
2023/06/16 03:39:42;;;;;;;;;;;;;;;;;;5091940;27;20390;-69
2023/06/16 03:42:08;;;;;;;;;;;;;;;;;;5091018;28;20380;-69
2023/06/16 03:44:34;;;;;;;;;;;;;;;;;;5091440;28;19915;-69
2023/06/16 03:47:00;;;;;;;;;;;;;;;;;;5091274;28;19908;-69
2023/06/16 03:49:26;;;;;;;;;;;;;;;;;;5090896;28;19915;-69
2023/06/16 03:52:06;;;;;;;;;;;;;;;;;;5092298;28;19916;-69
2023/06/16 03:54:32;;;;;;;;;;;;;;;;;;5091322;28;20435;-68
2023/06/16 03:56:58;;;;;;;;;;;;;;;;;;5090869;28;19912;-68
2023/06/16 04:01:30;;;;;;;;;;;;;;;;;;5132730;27;20011;-68
2023/06/16 04:13:17;;;;;;;;;;;;;;;;;;5092162;27;19923;-69
2023/06/16 04:15:43;;;;;;;;;;;;;;;;;;5091145;28;20343;-69
2023/06/16 04:18:09;;;;;;;;;;;;;;;;;;5091214;28;19954;-69
2023/06/16 04:20:35;;;;;;;;;;;;;;;;;;5091279;28;20418;-68
2023/06/16 04:23:01;;;;;;;;;;;;;;;;;;5090819;28;20284;-69
2023/06/16 04:32:32;;;;;;;;;;;;;;;;;;5091802;27;20300;-69
2023/06/16 04:36:32;;;;;;;;;;;;;;;;;;5091318;27;19917;-68
2023/06/16 04:38:59;;;;;;;;;;;;;;;;;;5091021;28;20452;-68
2023/06/16 04:42:13;;;;;;;;;;;;;;;;;;5091507;27;19917;-68
2023/06/16 04:45:52;;;;;;;;;;;;;;;;;;5091047;27;19913;-68
2023/06/16 04:48:56;;;;;;;;;;;;;;;;;;5092056;27;19916;-68
2023/06/16 04:51:22;;;;;;;;;;;;;;;;;;5090913;28;19913;-68
2023/06/16 04:53:48;;;;;;;;;;;;;;;;;;5091241;28;20288;-68
2023/06/16 04:59:01;;;;;;;;;;;;;;;;;;5091371;28;20284;-68
2023/06/16 05:07:06;;;;;;;;;;;;;;;;;;5091007;27;19912;-69
2023/06/16 05:13:54;;;;;;;;;;;;;;;;;;5090991;28;20265;-68
2023/06/16 05:19:53;;;;;;;;;;;;;;;;;;5091446;27;19916;-69
2023/06/16 05:22:45;;;;;;;;;;;;;;;;;;5092156;27;19939;-69
2023/06/16 05:26:36;;;;;;;;;;;;;;;;;;5111767;27;19916;-69
2023/06/16 05:30:17;;;;;;;;;;;;;;;;;;5152754;27;19911;-69
2023/06/16 05:36:25;;;;;;;;;;;;;;;;;;5091543;27;19916;-68
2023/06/16 05:40:21;;;;;;;;;;;;;;;;;;5091779;28;19923;-69
2023/06/16 05:42:47;;;;;;;;;;;;;;;;;;5091319;28;20002;-69
2023/06/16 05:45:13;;;;;;;;;;;;;;;;;;5091489;28;19954;-69
2023/06/16 05:47:38;;;;;;;;;;;;;;;;;;5089588;28;19912;-69
2023/06/16 05:50:04;;;;;;;;;;;;;;;;;;5091130;28;19909;-70
2023/06/16 05:52:31;;;;;;;;;;;;;;;;;;5082836;28;19944;-66
2023/06/16 05:54:57;;;;;;;;;;;;;;;;;;5085613;28;19974;-66
2023/06/16 06:04:57;;;;;;;;;;;;;;;;;;5013297;27;4265334;-65
2023/06/16 06:08:57;;;;;;;;;;;;;;;;;;5152120;27;20345;-68
2023/06/16 06:11:23;;;;;;;;;;;;;;;;;;5151300;27;19958;-65
2023/06/16 06:14:27;;;;;;;;;;;;;;;;;;5108143;27;20384;-65
2023/06/16 06:16:54;;;;;;;;;;;;;;;;;;5108990;28;19918;-64
2023/06/16 06:19:22;;;;;;;;;;;;;;;;;;5107142;28;19934;-65
2023/06/16 06:25:06;;;;;;;;;;;;;;;;;;5087107;27;20300;-67
2023/06/16 06:27:45;;;;;;;;;;;;;;;;;;5086775;27;19919;-66
2023/06/16 06:32:18;;;;;;;;;;;;;;;;;;5086981;27;20279;-67
2023/06/16 06:37:18;;;;;;;;;;;;;;;;;;5141437;27;19916;-66
2023/06/16 06:39:45;;;;;;;;;;;;;;;;;;5129111;27;20034;-67
2023/06/16 06:42:45;;;;;;;;;;;;;;;;;;5110394;27;19923;-67
2023/06/16 06:47:47;;;;;;;;;;;;;;;;;;5066321;27;19924;-65
2023/06/16 06:50:13;;;;;;;;;;;;;;;;;;5069508;28;19995;-65
2023/06/16 06:54:24;;;;;;;;;;;;;;;;;;5089557;28;19916;-66
2023/06/16 06:56:50;;;;;;;;;;;;;;;;;;5089327;28;19916;-66
2023/06/16 06:59:15;;;;;;;;;;;;;;;;;;5065475;28;19917;-65
2023/06/16 07:01:41;;;;;;;;;;;;;;;;;;5087129;28;20604;-66
2023/06/16 07:04:07;;;;;;;;;;;;;;;;;;5087619;28;19918;-66
2023/06/16 07:08:37;;;;;;;;;;;;;;;;;;5087747;27;19916;-65
2023/06/16 07:11:03;;;;;;;;;;;;;;;;;;5081431;28;19912;-65
2023/06/16 07:13:29;;;;;;;;;;;;;;;;;;5088810;28;19908;-66
2023/06/16 07:20:39;;;;;;;;;;;;;;;;;;5081043;28;19925;-65
2023/06/16 07:23:05;;;;;;;;;;;;;;;;;;5087795;28;19913;-67
2023/06/16 07:25:35;;;;;;;;;;;;;;;;;;5088865;28;19969;-65
2023/06/16 07:28:02;;;;;;;;;;;;;;;;;;5078921;28;19915;-67
2023/06/16 07:34:41;;;;;;;;;;;;;;;;;;5082436;27;19926;-69
2023/06/16 07:37:07;;;;;;;;;;;;;;;;;;5077706;28;19998;-66
2023/06/16 07:39:33;;;;;;;;;;;;;;;;;;5085973;28;20384;-66
2023/06/16 07:41:59;;;;;;;;;;;;;;;;;;5087672;28;19912;-66
2023/06/16 07:44:25;;;;;;;;;;;;;;;;;;5078675;28;19917;-66
2023/06/16 07:46:51;;;;;;;;;;;;;;;;;;5066336;28;20574;-66
2023/06/16 07:49:17;;;;;;;;;;;;;;;;;;5077068;28;20388;-63
2023/06/16 07:51:43;;;;;;;;;;;;;;;;;;5071330;28;19963;-66
2023/06/16 07:56:16;;;;;;;;;;;;;;;;;;5070641;27;19920;-65
2023/06/16 07:58:42;;;;;;;;;;;;;;;;;;5081510;28;19966;-68
2023/06/16 08:01:08;;;;;;;;;;;;;;;;;;5084073;28;19908;-65
2023/06/16 08:03:34;;;;;;;;;;;;;;;;;;5087092;28;20026;-66
2023/06/16 08:06:00;;;;;;;;;;;;;;;;;;5088280;28;19912;-66
2023/06/16 08:08:27;;;;;;;;;;;;;;;;;;5086323;28;19908;-66
2023/06/16 08:10:53;;;;;;;;;;;;;;;;;;5086034;28;20275;-65
2023/06/16 08:13:19;;;;;;;;;;;;;;;;;;5078103;28;19908;-66
2023/06/16 08:18:21;;;;;;;;;;;;;;;;;;5087563;27;19912;-65
2023/06/16 08:20:47;;;;;;;;;;;;;;;;;;5087923;28;20349;-65
2023/06/16 08:23:13;;;;;;;;;;;;;;;;;;5081634;28;20006;-65
2023/06/16 08:25:39;;;;;;;;;;;;;;;;;;5088737;28;19957;-66
2023/06/16 08:28:27;;;;;;;;;;;;;;;;;;5150412;27;19912;-65
2023/06/16 08:30:53;;;;;;;;;;;;;;;;;;5150539;27;20001;-65
2023/06/16 08:33:20;;;;;;;;;;;;;;;;;;5149805;27;19907;-65
2023/06/16 08:35:46;;;;;;;;;;;;;;;;;;5144378;27;19918;-65
2023/06/16 08:38:12;;;;;;;;;;;;;;;;;;5139950;27;20002;-65
2023/06/16 08:40:38;;;;;;;;;;;;;;;;;;5144618;27;20324;-66
2023/06/16 08:43:04;;;;;;;;;;;;;;;;;;5146110;27;19918;-65
2023/06/16 08:45:30;;;;;;;;;;;;;;;;;;5148838;27;20391;-66
2023/06/16 08:47:56;;;;;;;;;;;;;;;;;;5146905;27;19924;-67
2023/06/16 08:51:14;;;;;;;;;;;;;;;;;;5087797;27;19916;-67
2023/06/16 08:53:40;;;;;;;;;;;;;;;;;;5083627;28;19927;-64
2023/06/16 08:56:32;;;;;;;;;;;;;;;;;;5148145;27;19919;-66
2023/06/16 08:58:58;;;;;;;;;;;;;;;;;;5122802;27;19947;-64
2023/06/16 09:01:24;;;;;;;;;;;;;;;;;;5120704;27;20608;-66
2023/06/16 09:03:52;;;;;;;;;;;;;;;;;;5129505;28;20427;-66
2023/06/16 09:06:18;;;;;;;;;;;;;;;;;;5130078;28;19953;-65
2023/06/16 09:08:44;;;;;;;;;;;;;;;;;;5130036;28;19915;-65
2023/06/16 09:11:10;;;;;;;;;;;;;;;;;;5108221;28;19912;-65
2023/06/16 09:13:36;;;;;;;;;;;;;;;;;;5126700;28;19915;-65
2023/06/16 09:16:03;;;;;;;;;;;;;;;;;;5130994;28;19927;-65
2023/06/16 09:18:30;;;;;;;;;;;;;;;;;;5128970;28;20030;-65
2023/06/16 09:20:56;;;;;;;;;;;;;;;;;;5129024;28;19908;-65
2023/06/16 09:23:22;;;;;;;;;;;;;;;;;;5129049;28;19999;-64
2023/06/16 09:25:48;;;;;;;;;;;;;;;;;;5128634;28;19907;-66
2023/06/16 09:28:15;;;;;;;;;;;;;;;;;;5111125;28;19908;-65
2023/06/16 09:30:40;;;;;;;;;;;;;;;;;;5103197;28;19923;-65
2023/06/16 09:33:06;;;;;;;;;;;;;;;;;;5108983;28;19908;-64
2023/06/16 09:35:32;;;;;;;;;;;;;;;;;;5099668;28;19922;-65
2023/06/16 09:38:40;;;;;;;;;;;;;;;;;;5085952;28;19912;-65
2023/06/16 09:41:06;;;;;;;;;;;;;;;;;;5089178;28;19912;-65
2023/06/16 09:43:32;;;;;;;;;;;;;;;;;;5090544;28;19915;-65
2023/06/16 09:48:27;;;;;;;;;;;;;;;;;;5152223;27;19915;-65
2023/06/16 09:50:56;;;;;;;;;;;;;;;;;;5152598;27;19918;-66
2023/06/16 09:53:22;;;;;;;;;;;;;;;;;;5139761;27;19995;-66
2023/06/16 09:55:48;;;;;;;;;;;;;;;;;;5113248;28;19915;-65
2023/06/16 09:58:14;;;;;;;;;;;;;;;;;;5131751;28;19912;-66
2023/06/16 10:00:40;;;;;;;;;;;;;;;;;;5131343;28;20322;-66
2023/06/16 10:03:07;;;;;;;;;;;;;;;;;;5113120;28;20005;-65
2023/06/16 10:05:34;;;;;;;;;;;;;;;;;;5131714;28;19999;-65
2023/06/16 10:08:00;;;;;;;;;;;;;;;;;;5123911;27;20347;-65
2023/06/16 10:10:27;;;;;;;;;;;;;;;;;;5147404;27;19918;-65
2023/06/16 10:12:53;;;;;;;;;;;;;;;;;;5149947;27;19952;-65
2023/06/16 10:15:19;;;;;;;;;;;;;;;;;;5149958;27;20363;-65
2023/06/16 10:17:45;;;;;;;;;;;;;;;;;;5150330;27;19915;-67
2023/06/16 10:20:13;;;;;;;;;;;;;;;;;;5149039;27;19908;-66
2023/06/16 10:22:39;;;;;;;;;;;;;;;;;;5149129;27;19907;-66
2023/06/16 10:25:06;;;;;;;;;;;;;;;;;;5150703;27;20312;-66
2023/06/16 10:27:32;;;;;;;;;;;;;;;;;;5150964;27;19975;-67
2023/06/16 10:29:57;;;;;;;;;;;;;;;;;;5150490;27;19952;-66
2023/06/16 10:32:25;;;;;;;;;;;;;;;;;;5132133;27;19914;-68
2023/06/16 10:34:51;;;;;;;;;;;;;;;;;;5150318;27;19908;-66
2023/06/16 10:37:18;;;;;;;;;;;;;;;;;;5151324;27;19919;-67
2023/06/16 10:39:44;;;;;;;;;;;;;;;;;;5149626;27;19908;-67
2023/06/16 10:42:11;;;;;;;;;;;;;;;;;;5149578;27;19964;-67
2023/06/16 10:44:37;;;;;;;;;;;;;;;;;;5150136;27;19911;-67
2023/06/16 10:47:03;;;;;;;;;;;;;;;;;;5149771;27;19920;-67
2023/06/16 10:49:29;;;;;;;;;;;;;;;;;;5151112;27;19918;-67
2023/06/16 10:51:56;;;;;;;;;;;;;;;;;;5150690;27;19907;-67
2023/06/16 10:54:22;;;;;;;;;;;;;;;;;;5149624;27;20382;-67
2023/06/16 10:56:48;;;;;;;;;;;;;;;;;;5150968;27;19907;-66
2023/06/16 10:59:14;;;;;;;;;;;;;;;;;;5139953;27;19912;-67
2023/06/16 11:01:40;;;;;;;;;;;;;;;;;;5118999;27;20313;-66
2023/06/16 11:04:06;;;;;;;;;;;;;;;;;;5137070;27;19907;-67
2023/06/16 11:06:32;;;;;;;;;;;;;;;;;;5137454;27;19918;-68
2023/06/16 11:08:58;;;;;;;;;;;;;;;;;;5137526;27;19947;-67
2023/06/16 11:11:25;;;;;;;;;;;;;;;;;;5136981;27;19915;-67
2023/06/16 11:13:51;;;;;;;;;;;;;;;;;;5137218;27;20282;-67
2023/06/16 11:16:17;;;;;;;;;;;;;;;;;;5111005;27;19916;-68
2023/06/16 11:18:43;;;;;;;;;;;;;;;;;;5100890;27;19911;-67
2023/06/16 11:21:10;;;;;;;;;;;;;;;;;;5131373;27;20331;-67
2023/06/16 11:23:36;;;;;;;;;;;;;;;;;;5133987;27;19934;-67
2023/06/16 11:26:02;;;;;;;;;;;;;;;;;;5134586;27;19915;-66
2023/06/16 11:28:28;;;;;;;;;;;;;;;;;;5118545;27;19912;-69
2023/06/16 11:30:54;;;;;;;;;;;;;;;;;;5116738;27;19914;-68
2023/06/16 11:33:22;;;;;;;;;;;;;;;;;;5118025;27;19955;-68
2023/06/16 11:35:48;;;;;;;;;;;;;;;;;;5136410;27;19952;-67
2023/06/16 11:38:14;;;;;;;;;;;;;;;;;;5135921;27;19918;-68
2023/06/16 11:40:40;;;;;;;;;;;;;;;;;;5135848;27;19912;-66
2023/06/16 11:43:06;;;;;;;;;;;;;;;;;;5135854;27;20313;-65
2023/06/16 11:45:32;;;;;;;;;;;;;;;;;;5136611;27;20262;-65
2023/06/16 11:47:58;;;;;;;;;;;;;;;;;;5117353;27;19924;-66
2023/06/16 11:50:24;;;;;;;;;;;;;;;;;;5136562;27;19931;-64
2023/06/16 11:52:50;;;;;;;;;;;;;;;;;;5136539;27;19926;-65
2023/06/16 11:55:16;;;;;;;;;;;;;;;;;;5136127;27;19907;-65
2023/06/16 11:57:42;;;;;;;;;;;;;;;;;;5136366;27;20370;-65
2023/06/16 12:00:08;;;;;;;;;;;;;;;;;;5135925;27;19911;-65
2023/06/16 12:02:34;;;;;;;;;;;;;;;;;;5136413;27;19908;-65
2023/06/16 12:05:01;;;;;;;;;;;;;;;;;;5135597;27;19914;-66
2023/06/16 12:07:27;;;;;;;;;;;;;;;;;;5135125;27;20035;-65
2023/06/16 12:10:22;;;;;;;;;;;;;;;;;;5111754;27;19916;-66
2023/06/16 12:12:48;;;;;;;;;;;;;;;;;;5111507;28;20019;-66
2023/06/16 12:15:14;;;;;;;;;;;;;;;;;;5111038;28;19908;-66
2023/06/16 12:17:40;;;;;;;;;;;;;;;;;;5111379;28;19961;-66
2023/06/16 12:20:06;;;;;;;;;;;;;;;;;;5111300;28;19908;-66
2023/06/16 12:22:32;;;;;;;;;;;;;;;;;;5109736;28;20016;-65
2023/06/16 12:24:58;;;;;;;;;;;;;;;;;;5111353;28;19928;-65
2023/06/16 12:27:24;;;;;;;;;;;;;;;;;;5111196;28;19995;-64
2023/06/16 12:32:55;;;;;;;;;;;;;;;;;;5152792;27;20357;-64
2023/06/16 12:42:16;;;;;;;;;;;;;;;;;;5111530;27;19914;-65
2023/06/16 12:44:42;;;;;;;;;;;;;;;;;;5111609;28;20006;-67
2023/06/16 12:50:20;;;;;;;;;;;;;;;;;;5111291;27;19990;-66
2023/06/16 12:53:54;;;;;;;;;;;;;;;;;;5111317;27;19916;-66
2023/06/16 12:57:46;;;;;;;;;;;;;;;;;;5142861;27;19912;-66
2023/06/16 13:00:13;;;;;;;;;;;;;;;;;;5131736;28;19919;-66
2023/06/16 13:02:39;;;;;;;;;;;;;;;;;;5131695;28;20363;-69
2023/06/16 13:05:05;;;;;;;;;;;;;;;;;;5131587;28;19914;-70
2023/06/16 13:07:53;;;;;;;;;;;;;;;;;;5091455;27;19919;-71
2023/06/16 13:10:19;;;;;;;;;;;;;;;;;;5091058;28;20011;-69
2023/06/16 13:12:45;;;;;;;;;;;;;;;;;;5091329;28;19962;-71
2023/06/16 13:15:11;;;;;;;;;;;;;;;;;;5091282;28;19908;-70
2023/06/16 13:17:37;;;;;;;;;;;;;;;;;;5090805;28;19922;-69
2023/06/16 13:20:25;;;;;;;;;;;;;;;;;;5092270;27;19916;-70
2023/06/16 13:25:59;;;;;;;;;;;;;;;;;;5091125;27;19923;-71
2023/06/16 13:29:35;;;;;;;;;;;;;;;;;;5092194;27;19917;-70
2023/06/16 13:32:01;;;;;;;;;;;;;;;;;;5089687;28;19912;-70
2023/06/16 13:34:27;;;;;;;;;;;;;;;;;;5090787;28;20380;-70
2023/06/16 13:36:53;;;;;;;;;;;;;;;;;;5091099;28;19952;-70
2023/06/16 13:39:19;;;;;;;;;;;;;;;;;;5090684;28;19934;-70
2023/06/16 13:44:34;;;;;;;;;;;;;;;;;;5091686;27;19916;-70
2023/06/16 13:47:00;;;;;;;;;;;;;;;;;;5090870;28;20391;-70
2023/06/16 13:49:26;;;;;;;;;;;;;;;;;;5091205;28;19909;-69
2023/06/16 13:53:25;;;;;;;;;;;;;;;;;;5090913;27;20380;-70
2023/06/16 13:58:53;;;;;;;;;;;;;;;;;;5091285;27;19912;-68
2023/06/16 14:02:54;;;;;;;;;;;;;;;;;;5091351;27;19913;-69
2023/06/16 14:09:09;;;;;;;;;;;;;;;;;;5152885;27;20009;-69
2023/06/16 14:18:11;;;;;;;;;;;;;;;;;;5152898;27;20294;-70
2023/06/16 14:23:25;;;;;;;;;;;;;;;;;;5091314;27;19916;-69
2023/06/16 14:26:59;;;;;;;;;;;;;;;;;;5153334;27;19911;-70
2023/06/16 14:30:05;;;;;;;;;;;;;;;;;;5090109;27;20281;-69
2023/06/16 14:33:03;;;;;;;;;;;;;;;;;;5091161;27;19919;-69
2023/06/16 14:35:29;;;;;;;;;;;;;;;;;;5090927;28;20003;-69
2023/06/16 14:37:55;;;;;;;;;;;;;;;;;;5091201;28;19908;-69
2023/06/16 14:41:44;;;;;;;;;;;;;;;;;;5091106;27;19923;-69
2023/06/16 14:46:00;;;;;;;;;;;;;;;;;;5090927;27;20376;-69
2023/06/16 14:48:28;;;;;;;;;;;;;;;;;;5089941;28;19913;-72
2023/06/16 14:50:54;;;;;;;;;;;;;;;;;;5089543;28;20356;-69
2023/06/16 14:54:25;;;;;;;;;;;;;;;;;;5090781;28;19917;-70
2023/06/16 14:56:52;;;;;;;;;;;;;;;;;;5088542;28;19918;-69
2023/06/16 15:00:31;;;;;;;;;;;;;;;;;;5089408;27;19916;-69
2023/06/16 15:02:57;;;;;;;;;;;;;;;;;;5089995;28;19917;-69
2023/06/16 15:05:23;;;;;;;;;;;;;;;;;;5089477;28;20356;-69
2023/06/16 15:07:48;;;;;;;;;;;;;;;;;;5090925;28;19915;-70
2023/06/16 15:11:14;;;;;;;;;;;;;;;;;;5150609;27;19916;-69
2023/06/16 15:14:46;;;;;;;;;;;;;;;;;;5089412;27;19922;-68
2023/06/16 15:20:41;;;;;;;;;;;;;;;;;;5173441;27;19915;-68
2023/06/16 15:23:07;;;;;;;;;;;;;;;;;;5154990;27;19911;-70
2023/06/16 15:25:33;;;;;;;;;;;;;;;;;;5173377;27;19952;-70
2023/06/16 15:29:14;;;;;;;;;;;;;;;;;;5090851;27;19923;-69
2023/06/16 15:31:40;;;;;;;;;;;;;;;;;;5091153;28;19912;-71
2023/06/16 15:36:53;;;;;;;;;;;;;;;;;;5111288;27;20295;-71
2023/06/16 15:40:14;;;;;;;;;;;;;;;;;;5070732;28;19917;-71
2023/06/16 15:44:16;;;;;;;;;;;;;;;;;;5071227;28;20265;-70
2023/06/16 15:46:42;;;;;;;;;;;;;;;;;;5070765;28;20000;-70
2023/06/16 15:49:08;;;;;;;;;;;;;;;;;;5070595;28;19954;-71
2023/06/16 15:52:01;;;;;;;;;;;;;;;;;;5090715;27;20394;-72
2023/06/16 15:54:27;;;;;;;;;;;;;;;;;;5091187;28;20330;-71
2023/06/16 15:56:53;;;;;;;;;;;;;;;;;;5091292;28;19908;-71
2023/06/16 15:59:19;;;;;;;;;;;;;;;;;;5090782;28;20386;-71
2023/06/16 16:01:46;;;;;;;;;;;;;;;;;;5089906;28;20300;-72
2023/06/16 16:04:12;;;;;;;;;;;;;;;;;;5091110;28;19909;-72
2023/06/16 16:10:33;;;;;;;;;;;;;;;;;;5091191;27;19923;-69
2023/06/16 16:15:48;;;;;;;;;;;;;;;;;;5091263;27;19920;-71
2023/06/16 16:18:15;;;;;;;;;;;;;;;;;;5091305;28;19912;-72
2023/06/16 16:24:32;;;;;;;;;;;;;;;;;;5152830;27;19916;-69
2023/06/16 16:27:39;;;;;;;;;;;;;;;;;;5090855;28;19919;-70
2023/06/16 16:33:09;;;;;;;;;;;;;;;;;;5091430;27;20376;-69
2023/06/16 16:36:06;;;;;;;;;;;;;;;;;;5131943;27;19981;-71
2023/06/16 16:38:34;;;;;;;;;;;;;;;;;;5132103;28;19911;-69
2023/06/16 16:43:29;;;;;;;;;;;;;;;;;;5091051;27;19923;-69
2023/06/16 16:45:55;;;;;;;;;;;;;;;;;;5091154;28;19912;-69
2023/06/16 16:48:21;;;;;;;;;;;;;;;;;;5090877;28;19931;-69
2023/06/16 16:51:21;;;;;;;;;;;;;;;;;;5091365;27;19913;-70
2023/06/16 16:54:27;;;;;;;;;;;;;;;;;;5091614;27;19916;-69
2023/06/16 16:56:53;;;;;;;;;;;;;;;;;;5090893;28;19913;-70
2023/06/16 17:05:48;;;;;;;;;;;;;;;;;;5091229;27;19916;-69
2023/06/16 17:11:56;;;;;;;;;;;;;;;;;;5153218;27;19925;-70
2023/06/16 17:19:39;;;;;;;;;;;;;;;;;;5091816;27;19923;-70
2023/06/16 17:22:38;;;;;;;;;;;;;;;;;;5091290;27;20372;-71
2023/06/16 17:25:04;;;;;;;;;;;;;;;;;;5091046;28;20007;-70
2023/06/16 17:27:30;;;;;;;;;;;;;;;;;;5091726;28;19951;-72
2023/06/16 17:32:59;;;;;;;;;;;;;;;;;;5091539;28;20283;-71
2023/06/16 17:40:42;;;;;;;;;;;;;;;;;;5092347;27;19919;-71
2023/06/16 17:43:08;;;;;;;;;;;;;;;;;;5091307;28;20011;-71
2023/06/16 17:47:07;;;;;;;;;;;;;;;;;;5091487;27;19923;-72
2023/06/16 17:49:33;;;;;;;;;;;;;;;;;;5091669;28;19913;-71
2023/06/16 17:51:58;;;;;;;;;;;;;;;;;;5091419;28;19915;-71
2023/06/16 17:54:25;;;;;;;;;;;;;;;;;;5091252;28;19909;-71
2023/06/16 17:56:50;;;;;;;;;;;;;;;;;;5091147;28;19954;-71
2023/06/16 17:59:16;;;;;;;;;;;;;;;;;;5091033;28;19916;-71
2023/06/16 18:01:42;;;;;;;;;;;;;;;;;;5091139;28;19908;-71
2023/06/16 18:07:40;;;;;;;;;;;;;;;;;;5152737;27;20010;-72
2023/06/16 18:10:06;;;;;;;;;;;;;;;;;;5153073;27;19958;-71
2023/06/16 18:12:32;;;;;;;;;;;;;;;;;;5153251;27;20328;-71
2023/06/16 18:16:46;;;;;;;;;;;;;;;;;;5153316;27;19919;-71
2023/06/16 18:19:12;;;;;;;;;;;;;;;;;;5152891;27;19911;-70
2023/06/16 18:21:38;;;;;;;;;;;;;;;;;;5152395;27;20362;-72
2023/06/16 18:24:04;;;;;;;;;;;;;;;;;;5152836;27;20341;-70
2023/06/16 18:28:44;;;;;;;;;;;;;;;;;;5090976;27;19916;-70
2023/06/16 18:31:11;;;;;;;;;;;;;;;;;;5091300;28;20311;-72
2023/06/16 18:36:17;;;;;;;;;;;;;;;;;;5153422;27;20002;-72
2023/06/16 18:38:43;;;;;;;;;;;;;;;;;;5152845;27;19919;-71
2023/06/16 18:41:09;;;;;;;;;;;;;;;;;;5152409;27;19912;-72
2023/06/16 18:43:35;;;;;;;;;;;;;;;;;;5152783;27;19911;-71
2023/06/16 18:47:47;;;;;;;;;;;;;;;;;;5091460;27;19923;-70
2023/06/16 18:53:12;;;;;;;;;;;;;;;;;;5091589;28;19917;-70
2023/06/16 18:55:41;;;;;;;;;;;;;;;;;;5091005;28;19912;-71
2023/06/16 19:02:50;;;;;;;;;;;;;;;;;;5091154;28;20253;-70
2023/06/16 19:05:16;;;;;;;;;;;;;;;;;;5091370;28;19995;-71
2023/06/16 19:07:42;;;;;;;;;;;;;;;;;;5091312;28;19908;-71
2023/06/16 19:11:31;;;;;;;;;;;;;;;;;;5111748;27;19919;-71
2023/06/16 19:17:34;;;;;;;;;;;;;;;;;;5111435;27;19923;-71
2023/06/16 19:20:04;;;;;;;;;;;;;;;;;;5111846;28;19912;-71
2023/06/16 19:25:17;;;;;;;;;;;;;;;;;;5091169;27;20277;-70
2023/06/16 19:27:43;;;;;;;;;;;;;;;;;;5091380;28;20011;-70
2023/06/16 19:30:09;;;;;;;;;;;;;;;;;;5090938;28;19955;-70
2023/06/16 19:33:30;;;;;;;;;;;;;;;;;;5091759;27;19917;-70
2023/06/16 19:40:46;;;;;;;;;;;;;;;;;;5089298;27;19923;-70
2023/06/16 19:43:12;;;;;;;;;;;;;;;;;;5090113;28;19912;-70
2023/06/16 19:48:23;;;;;;;;;;;;;;;;;;5091467;27;20376;-70
2023/06/16 19:52:27;;;;;;;;;;;;;;;;;;5091002;27;19913;-70
2023/06/16 19:54:53;;;;;;;;;;;;;;;;;;5091648;28;20002;-71
2023/06/16 19:57:34;;;;;;;;;;;;;;;;;;5091545;28;19917;-70
2023/06/16 20:01:22;;;;;;;;;;;;;;;;;;5091994;27;20414;-70
2023/06/16 20:03:48;;;;;;;;;;;;;;;;;;5091245;28;20007;-72
2023/06/16 20:06:23;;;;;;;;;;;;;;;;;;5091000;27;20383;-71
2023/06/16 20:08:49;;;;;;;;;;;;;;;;;;5091355;28;19999;-70
2023/06/16 20:11:15;;;;;;;;;;;;;;;;;;5091145;28;20315;-71
2023/06/16 20:13:45;;;;;;;;;;;;;;;;;;5090844;28;19934;-70
2023/06/16 20:19:20;;;;;;;;;;;;;;;;;;5153006;27;19994;-72
2023/06/16 20:22:22;;;;;;;;;;;;;;;;;;5153628;27;19923;-70
2023/06/16 20:24:48;;;;;;;;;;;;;;;;;;5152868;27;19915;-69
2023/06/16 20:27:14;;;;;;;;;;;;;;;;;;5152381;27;20386;-70
2023/06/16 20:29:40;;;;;;;;;;;;;;;;;;5152879;27;20335;-71
2023/06/16 20:40:09;;;;;;;;;;;;;;;;;;5091954;28;19923;-70
2023/06/16 20:42:35;;;;;;;;;;;;;;;;;;5089726;28;19912;-70
2023/06/16 20:45:01;;;;;;;;;;;;;;;;;;5091232;28;20265;-70
2023/06/16 20:47:27;;;;;;;;;;;;;;;;;;5090826;28;20391;-70
2023/06/16 20:52:17;;;;;;;;;;;;;;;;;;5153395;27;20283;-70
2023/06/16 20:57:25;;;;;;;;;;;;;;;;;;5091844;27;19922;-69
2023/06/16 21:02:37;;;;;;;;;;;;;;;;;;5091252;27;20380;-69
2023/06/16 21:11:02;;;;;;;;;;;;;;;;;;5153146;27;20010;-70
2023/06/16 21:13:28;;;;;;;;;;;;;;;;;;5152887;27;19999;-70
2023/06/16 21:16:19;;;;;;;;;;;;;;;;;;5091522;27;19923;-70
2023/06/16 21:18:45;;;;;;;;;;;;;;;;;;5091369;28;19913;-71
2023/06/16 21:21:11;;;;;;;;;;;;;;;;;;5091297;28;20429;-71
2023/06/16 21:23:37;;;;;;;;;;;;;;;;;;5090915;28;20343;-71
2023/06/16 21:27:15;;;;;;;;;;;;;;;;;;5152983;27;20299;-71
2023/06/16 21:30:15;;;;;;;;;;;;;;;;;;5091215;27;19923;-70
2023/06/16 21:32:41;;;;;;;;;;;;;;;;;;5090141;28;20015;-71
2023/06/16 21:35:50;;;;;;;;;;;;;;;;;;5132375;27;19912;-69
2023/06/16 21:38:20;;;;;;;;;;;;;;;;;;5131992;27;20271;-70
2023/06/16 21:40:46;;;;;;;;;;;;;;;;;;5132212;27;19915;-70
2023/06/16 21:45:06;;;;;;;;;;;;;;;;;;5152481;27;20294;-70
2023/06/16 21:49:02;;;;;;;;;;;;;;;;;;5092112;27;20379;-70
2023/06/16 21:51:27;;;;;;;;;;;;;;;;;;5090898;28;19999;-70
2023/06/16 21:53:53;;;;;;;;;;;;;;;;;;5091383;28;20372;-70
2023/06/16 21:58:57;;;;;;;;;;;;;;;;;;5091383;27;19917;-69
2023/06/16 22:01:23;;;;;;;;;;;;;;;;;;5091641;28;20427;-70
2023/06/16 22:03:49;;;;;;;;;;;;;;;;;;5091333;28;19915;-69
2023/06/16 22:06:16;;;;;;;;;;;;;;;;;;5090969;28;19954;-70
2023/06/16 22:10:16;;;;;;;;;;;;;;;;;;5091727;27;19912;-70
2023/06/16 22:12:42;;;;;;;;;;;;;;;;;;5090913;28;19999;-70
2023/06/16 22:15:08;;;;;;;;;;;;;;;;;;5091236;28;20238;-70